Time;durP1;ratioP1;P1;durP2;ratioP2;P2;SDS_P1;SDS_P2;PMS_P1;PMS_P2;Temp;Humidity;BMP_temperature;BMP_pressure;BME280_temperature;BME280_humidity;BME280_pressure;Samples;Min_cycle;Max_cycle;Signal;HPM_P1;HPM_P2
2022/07/30 00:01:15;;;;;;;6.93;3.42;;;;;;;16.26;72.25;100237.66;10515456;28;20673;-82
2022/07/30 00:06:17;;;;;;;6.43;3.35;;;;;;;16.16;72.34;100196.44;10522196;28;20051;-82
2022/07/30 00:11:20;;;;;;;7.57;3.55;;;;;;;15.98;72.44;100131.56;10514362;28;20059;-82
2022/07/30 00:16:28;;;;;;;8.23;4.10;;;;;;;15.84;72.63;100078.97;10523749;28;20067;-84
2022/07/30 00:21:30;;;;;;;6.82;3.30;;;;;;;15.74;72.79;100050.03;10523061;28;20060;-82
2022/07/30 00:26:37;;;;;;;9.18;3.50;;;;;;;15.61;72.89;100006.25;10510752;28;20407;-82
2022/07/30 00:31:38;;;;;;;10.68;3.90;;;;;;;15.55;73.24;99982.63;10520572;28;20093;-82
2022/07/30 00:36:40;;;;;;;8.05;3.70;;;;;;;15.50;73.37;99968.63;10512344;28;20486;-82
2022/07/30 00:41:59;;;;;;;8.60;3.72;;;;;;;15.52;73.73;99987.94;10516169;28;20410;-83
2022/07/30 00:47:00;;;;;;;8.45;3.60;;;;;;;15.47;73.85;99968.69;10517201;28;20044;-83
2022/07/30 00:52:03;;;;;;;9.50;4.10;;;;;;;15.40;73.77;99951.22;10522107;28;20047;-83
2022/07/30 00:57:05;;;;;;;6.53;3.35;;;;;;;15.35;74.12;99938.97;10520637;28;20426;-83
2022/07/30 01:02:06;;;;;;;9.63;3.67;;;;;;;15.26;74.37;99910.09;10515604;28;20063;-83
2022/07/30 01:07:08;;;;;;;10.35;4.55;;;;;;;15.15;74.59;99878.63;10517837;28;20048;-82
2022/07/30 01:12:11;;;;;;;7.57;3.50;;;;;;;15.08;74.55;99855.91;10513593;28;20072;-83
2022/07/30 01:17:55;;;;;;;8.77;3.55;;;;;;;15.00;74.82;99829.66;11160667;22;20037;-84
2022/07/30 01:23:11;;;;;;;8.85;3.83;;;;;;;14.94;75.04;99803.41;10377185;28;20618;-85
2022/07/30 01:28:18;;;;;;;9.95;3.70;;;;;;;14.82;75.09;99769.34;10371907;28;20049;-84
2022/07/30 01:33:21;;;;;;;8.23;4.20;;;;;;;14.76;75.26;99743.13;10369369;28;20042;-86
2022/07/30 01:38:24;;;;;;;7.82;4.20;;;;;;;14.68;75.41;99719.50;10364791;28;20053;-84
2022/07/30 01:43:27;;;;;;;13.02;3.97;;;;;;;14.57;75.61;99680.13;10366358;28;20424;-84
2022/07/30 01:48:33;;;;;;;8.02;4.50;;;;;;;14.52;75.73;99668.81;10369658;28;20052;-85
2022/07/30 01:53:37;;;;;;;9.18;3.72;;;;;;;14.45;75.84;99646.97;10368601;28;20108;-83
2022/07/30 01:58:41;;;;;;;7.50;4.10;;;;;;;14.41;75.96;99633.88;10355813;28;20046;-83
2022/07/30 02:03:53;;;;;;;9.23;3.95;;;;;;;-147.53;100.00;57128.34;10368833;28;20047;-84
2022/07/30 02:08:58;;;;;;;8.52;3.58;;;;;;;-147.53;100.00;57128.34;10375592;28;20504;-84
2022/07/30 02:14:05;;;;;;;9.80;3.90;;;;;;;-147.53;100.00;57128.34;10373698;28;20050;-85
2022/07/30 02:19:13;;;;;;;7.47;3.53;;;;;;;-147.53;100.00;57128.34;10366443;28;20787;-84
2022/07/30 02:24:20;;;;;;;7.82;3.90;;;;;;;14.27;76.16;99589.34;10397195;28;20042;-84
2022/07/30 02:29:23;;;;;;;9.27;3.88;;;;;;;14.07;76.92;99537.06;10368341;28;21925;-84
2022/07/30 02:34:27;;;;;;;10.40;3.63;;;;;;;13.99;76.96;99512.63;10365684;28;20539;-85
2022/07/30 02:39:33;;;;;;;10.52;3.90;;;;;;;13.87;77.11;99466.34;10377769;28;20037;-84
2022/07/30 02:44:37;;;;;;;7.43;4.03;;;;;;;13.82;77.31;99447.16;10365372;28;20124;-84
2022/07/30 02:49:40;;;;;;;9.45;4.50;;;;;;;13.75;77.39;99435.84;10372864;28;20065;-85
2022/07/30 02:54:44;;;;;;;7.53;3.63;;;;;;;13.71;77.49;99429.78;10370489;28;20045;-85
2022/07/30 02:59:48;;;;;;;7.88;3.70;;;;;;;13.67;77.68;99416.72;10370939;28;20038;-84
2022/07/30 03:04:51;;;;;;;7.30;3.55;;;;;;;13.68;77.86;99423.72;10369770;28;20480;-85
2022/07/30 03:09:54;;;;;;;8.20;3.60;;;;;;;-147.53;100.00;57128.34;10378573;28;20674;-84
2022/07/30 03:14:58;;;;;;;8.00;4.07;;;;;;;-147.53;100.00;57128.34;10365895;28;20053;-84
2022/07/30 03:20:01;;;;;;;8.57;4.35;;;;;;;-147.53;100.00;57128.34;10364356;28;20129;-84
2022/07/30 03:25:04;;;;;;;8.55;4.35;;;;;;;-147.53;100.00;57128.34;10360796;28;20042;-83
2022/07/30 03:30:08;;;;;;;8.27;4.22;;;;;;;-147.53;100.00;57128.34;10366760;28;20050;-84
2022/07/30 03:35:10;;;;;;;7.05;3.83;;;;;;;-147.53;100.00;57128.34;10347240;28;20441;-83
2022/07/30 03:40:20;;;;;;;8.20;3.88;;;;;;;-147.53;100.00;57128.34;10366548;28;20132;-84
2022/07/30 03:45:23;;;;;;;8.15;3.75;;;;;;;-147.53;100.00;57128.34;10375319;28;20043;-84
2022/07/30 03:50:30;;;;;;;8.20;4.45;;;;;;;-147.53;100.00;57128.34;10367886;28;20066;-84
2022/07/30 03:55:32;;;;;;;6.80;3.55;;;;;;;-147.53;100.00;57128.34;10363831;28;20099;-84
2022/07/30 04:01:09;;;;;;;7.65;3.60;;;;;;;-147.53;100.00;57128.34;10371976;28;20046;-83
2022/07/30 04:06:11;;;;;;;9.65;3.95;;;;;;;-147.53;100.00;57128.34;10353165;28;20460;-83
2022/07/30 04:11:13;;;;;;;7.63;3.85;;;;;;;-147.53;100.00;57128.34;10377940;28;20057;-83
2022/07/30 04:16:56;;;;;;;11.32;4.32;;;;;;;-147.53;100.00;57128.34;10370861;28;20052;-83
2022/07/30 04:22:01;;;;;;;8.45;4.00;;;;;;;-147.53;100.00;57128.34;10364412;28;20158;-83
2022/07/30 04:27:05;;;;;;;8.48;3.83;;;;;;;-147.53;100.00;57128.34;10367154;28;20140;-84
2022/07/30 04:32:11;;;;;;;6.95;3.75;;;;;;;-147.53;100.00;57128.34;10383142;28;20038;-83
2022/07/30 04:37:35;;;;;;;10.38;3.90;;;;;;;-147.53;100.00;57128.34;10369940;28;20158;-84
2022/07/30 04:42:38;;;;;;;10.10;4.03;;;;;;;-147.53;100.00;57128.34;10366626;28;20038;-84
2022/07/30 04:47:43;;;;;;;8.10;4.22;;;;;;;-147.53;100.00;57128.34;10367858;28;20112;-84
2022/07/30 04:53:07;;;;;;;9.07;4.72;;;;;;;-147.53;100.00;57128.34;10366807;28;20081;-84
2022/07/30 04:58:13;;;;;;;11.23;5.05;;;;;;;-147.53;100.00;57128.34;10370869;28;20041;-84
2022/07/30 05:03:16;;;;;;;9.32;5.07;;;;;;;-147.53;100.00;57128.34;10403853;28;20077;-83
2022/07/30 05:08:25;;;;;;;11.52;5.10;;;;;;;-147.53;100.00;57128.34;10389820;28;20370;-84
2022/07/30 05:13:27;;;;;;;9.82;5.05;;;;;;;-147.53;100.00;57128.34;10366987;28;20050;-83
2022/07/30 05:18:41;;;;;;;8.95;5.55;;;;;;;-147.53;100.00;57128.34;10376613;28;20044;-84
2022/07/30 05:23:44;;;;;;;10.00;6.05;;;;;;;-147.53;100.00;57128.34;10365759;28;20049;-84
2022/07/30 05:28:57;;;;;;;9.98;6.32;;;;;;;14.30;81.55;99835.03;10370689;28;20087;-84
2022/07/30 05:34:07;;;;;;;11.82;6.15;;;;;;;14.55;81.60;99955.91;10366084;28;20038;-84
2022/07/30 05:39:16;;;;;;;15.60;6.90;;;;;;;14.91;81.73;100100.44;10359583;28;20037;-83
2022/07/30 05:44:17;;;;;;;12.20;6.38;;;;;;;15.12;81.94;100194.25;10373660;28;20472;-83
2022/07/30 05:49:24;;;;;;;11.82;6.15;;;;;;;15.24;82.03;100249.47;10362368;28;20088;-84
2022/07/30 05:54:29;;;;;;;14.65;7.03;;;;;;;15.40;82.07;100318.75;10388851;28;20053;-86
2022/07/30 06:00:05;;;;;;;13.18;5.88;;;;;;;15.64;82.31;100420.56;10392463;28;20045;-86
2022/07/30 06:05:22;;;;;;;11.45;6.25;;;;;;;15.89;82.16;100531.22;10378265;28;20049;-87
2022/07/30 06:10:25;;;;;;;15.48;6.65;;;;;;;16.14;82.41;100636.63;10381008;28;20065;-86
2022/07/30 06:15:27;;;;;;;12.63;6.30;;;;;;;16.26;82.66;100700.84;10359914;28;20050;-88
2022/07/30 06:20:29;;;;;;;10.60;5.93;;;;;;;16.46;82.98;100771.16;10391715;28;20083;-86
2022/07/30 06:25:45;;;;;;;11.85;6.03;;;;;;;16.65;83.05;100864.41;10389387;28;20076;-86
2022/07/30 06:30:47;;;;;;;12.48;6.22;;;;;;;16.85;82.98;100948.03;10379750;28;20033;-86
2022/07/30 06:35:50;;;;;;;11.02;5.70;;;;;;;17.08;82.89;101044.03;10397653;28;20088;-86
2022/07/30 06:40:55;;;;;;;15.23;5.25;;;;;;;17.31;83.09;101144.44;10379517;28;20496;-85
2022/07/30 06:46:29;;;;;;;11.20;4.78;;;;;;;17.66;83.18;101296.06;10377466;28;20657;-85
2022/07/30 06:51:31;;;;;;;12.40;5.10;;;;;;;18.44;83.50;101626.19;10377877;28;20463;-85
2022/07/30 06:56:34;;;;;;;10.18;4.65;;;;;;;19.17;83.25;101929.50;10370474;28;20497;-85
2022/07/30 07:01:38;;;;;;;10.07;4.47;;;;;;;19.54;83.18;102094.13;10369486;28;20034;-84
2022/07/30 07:06:40;;;;;;;11.65;4.40;;;;;;;20.17;83.31;102369.78;10396106;28;20049;-87
2022/07/30 07:11:44;;;;;;;11.07;4.22;;;;;;;20.56;83.26;102533.06;10371450;28;20034;-86
2022/07/30 07:16:49;;;;;;;13.63;4.13;;;;;;;21.14;83.03;102768.50;10390834;28;20132;-85
2022/07/30 07:22:09;;;;;;;14.15;3.83;;;;;;;21.74;82.70;103021.09;10389002;28;20084;-84
2022/07/30 07:27:11;;;;;;;10.23;3.28;;;;;;;22.21;82.22;103216.13;10385389;28;20045;-84
2022/07/30 07:32:17;;;;;;;10.60;3.92;;;;;;;22.60;82.05;103368.59;10391625;28;20046;-84
2022/07/30 07:37:19;;;;;;;8.48;2.90;;;;;;;22.86;81.62;103469.38;10390368;28;20077;-85
2022/07/30 07:42:21;;;;;;;10.35;3.05;;;;;;;23.32;81.41;103647.97;10371696;28;20037;-86
2022/07/30 07:47:24;;;;;;;7.70;2.70;;;;;;;23.75;80.97;103816.81;10382244;28;20041;-86
2022/07/30 07:52:45;;;;;;;7.15;3.03;;;;;;;23.80;80.22;103809.75;10388403;28;20055;-84
2022/07/30 07:57:47;;;;;;;9.85;3.00;;;;;;;24.16;79.51;103943.06;10401010;28;20478;-83
2022/07/30 08:02:50;;;;;;;12.07;2.90;;;;;;;23.85;79.09;103767.91;10397994;28;20041;-84
2022/07/30 08:07:52;;;;;;;8.15;3.22;;;;;;;24.10;78.65;103849.31;10386346;28;20508;-84
2022/07/30 08:13:19;;;;;;;8.82;2.70;;;;;;;24.80;77.85;104131.22;10393198;28;20037;-83
2022/07/30 08:18:59;;;;;;;6.00;2.38;;;;;;;25.06;77.52;104222.63;10388449;28;20404;-84
2022/07/30 08:24:07;;;;;;;10.80;2.88;;;;;;;25.15;76.62;104216.47;10372886;28;20072;-84
2022/07/30 08:29:08;;;;;;;9.63;2.80;;;;;;;25.52;76.25;104353.63;10389222;28;20038;-85
2022/07/30 08:34:19;;;;;;;9.18;2.60;;;;;;;25.89;75.62;104483.75;10377026;28;20064;-83
2022/07/30 08:39:27;;;;;;;6.97;2.53;;;;;;;25.77;74.76;104376.25;10384703;28;20711;-84
2022/07/30 08:44:29;;;;;;;11.02;2.47;;;;;;;25.98;73.87;104439.13;10391241;28;20139;-84
2022/07/30 08:49:32;;;;;;;6.55;2.13;;;;;;;26.62;73.33;104686.97;10382310;28;20065;-83
2022/07/30 08:54:34;;;;;;;6.25;2.10;;;;;;;26.76;72.54;104705.06;10384526;28;20053;-85
2022/07/30 08:59:37;;;;;;;6.82;2.40;;;;;;;26.87;71.69;104716.81;10394112;28;20065;-83
2022/07/30 09:05:01;;;;;;;6.22;2.22;;;;;;;26.83;71.08;104645.09;10380525;28;20068;-84
2022/07/30 09:10:04;;;;;;;8.50;2.60;;;;;;;27.15;70.11;104746.69;10383028;28;20084;-81
2022/07/30 09:15:11;;;;;;;3.63;1.70;;;;;;;27.62;69.54;104904.13;10384222;28;20761;-81
2022/07/30 09:20:13;;;;;;;7.93;1.90;;;;;;;27.58;68.47;104833.22;10405863;28;20052;-83
2022/07/30 09:25:32;;;;;;;8.82;2.33;;;;;;;27.81;67.64;104878.28;10392817;28;20037;-82
2022/07/30 09:30:54;;;;;;;4.35;1.80;;;;;;;28.06;66.64;104941.41;10403518;28;20085;-78
2022/07/30 09:36:17;;;;;;;5.88;1.90;;;;;;;28.06;65.58;104876.75;10403372;28;20046;-78
2022/07/30 09:41:57;;;;;;;13.32;1.90;;;;;;;28.19;64.67;104880.41;10371272;28;20045;-79
2022/07/30 09:47:01;;;;;;;6.75;1.80;;;;;;;28.35;63.83;104903.00;10371054;28;20053;-80
2022/07/30 09:52:07;;;;;;;9.30;2.00;;;;;;;28.54;62.74;104925.59;10371004;28;20058;-80
2022/07/30 09:57:12;;;;;;;6.15;1.90;;;;;;;28.48;62.32;104850.03;10356385;28;20348;-80
2022/07/30 10:02:30;;;;;;;5.75;2.00;;;;;;;28.32;61.11;104725.09;10365250;28;20095;-80
2022/07/30 10:07:51;;;;;;;8.60;2.30;;;;;;;28.44;60.57;104735.03;10375984;28;20045;-79
2022/07/30 10:12:57;;;;;;;;;;;;;;;28.84;59.86;104854.75;10359621;28;20064;-83
2022/07/30 10:18:00;;;;;;;7.18;1.90;;;;;;;28.95;58.93;104852.09;10395862;28;19951;-85
2022/07/30 10:23:35;;;;;;;6.72;1.95;;;;;;;28.49;58.13;104593.06;10378423;28;20506;-87
2022/07/30 10:29:04;;;;;;;6.10;1.70;;;;;;;28.39;57.38;104511.31;10364704;28;20038;-84
2022/07/30 10:34:06;;;;;;;5.78;2.35;;;;;;;28.78;57.14;104640.75;10368720;28;20417;-85
2022/07/30 10:39:12;;;;;;;7.43;1.98;;;;;;;28.47;56.20;104477.16;10376158;28;20049;-85
2022/07/30 10:44:39;;;;;;;5.38;1.90;;;;;;;28.61;55.83;104490.66;10380512;28;20120;-85
2022/07/30 10:50:09;;;;;;;6.40;2.17;;;;;;;29.06;55.46;104650.66;10392600;28;20111;-83
2022/07/30 10:55:13;;;;;;;9.23;2.03;;;;;;;28.39;54.68;104310.09;10330522;28;88399;-79
2022/07/30 11:00:18;;;;;;;3.97;1.85;;;;;;;27.52;54.02;103929.75;10386617;28;20042;-79
2022/07/30 11:05:22;;;;;;;7.60;2.00;;;;;;;27.41;53.96;103858.06;10396745;28;20045;-79
2022/07/30 11:10:44;;;;;;;5.70;2.30;;;;;;;27.98;53.28;104076.78;10393337;28;20067;-77
2022/07/30 11:16:00;;;;;;;7.05;2.33;;;;;;;28.29;53.36;104176.28;10378346;28;20647;-77
2022/07/30 11:21:20;;;;;;;4.05;1.90;;;;;;;28.55;52.52;104258.81;10380832;28;20412;-84
2022/07/30 11:26:38;;;;;;;3.42;1.95;;;;;;;28.21;52.38;104092.81;10376100;28;20049;-85
2022/07/30 11:31:42;;;;;;;6.15;1.88;;;;;;;28.59;51.96;104216.59;10382876;28;20449;-83
2022/07/30 11:37:09;;;;;;;4.80;2.03;;;;;;;28.59;51.80;104190.50;10382144;28;20052;-83
2022/07/30 11:42:23;;;;;;;9.10;1.92;;;;;;;28.68;51.13;104201.28;10384382;28;20037;-82
2022/07/30 11:47:26;;;;;;;6.63;2.03;;;;;;;29.12;51.03;104342.16;10386466;28;20160;-83
2022/07/30 11:52:28;;;;;;;6.57;1.75;;;;;;;29.24;50.57;104362.84;10379452;28;20566;-83
2022/07/30 11:57:40;;;;;;;6.07;2.30;;;;;;;29.26;50.23;104331.34;10386630;28;20053;-83
2022/07/30 12:02:41;;;;;;;5.65;1.80;;;;;;;29.76;49.95;104511.03;10389080;28;20037;-84
2022/07/30 12:07:43;;;;;;;7.00;1.95;;;;;;;29.11;49.24;104200.09;10403966;28;20033;-83
2022/07/30 12:12:45;;;;;;;7.40;2.03;;;;;;;28.36;48.83;103873.56;10400692;28;20100;-83
2022/07/30 12:17:47;;;;;;;6.45;1.90;;;;;;;28.97;49.00;104105.78;10393096;28;20049;-83
2022/07/30 12:22:57;;;;;;;7.40;2.20;;;;;;;29.22;48.44;104181.16;10389721;28;20046;-78
2022/07/30 12:27:59;;;;;;;4.30;1.83;;;;;;;28.19;48.05;103730.03;10383357;28;20140;-83
2022/07/30 12:33:00;;;;;;;3.22;1.80;;;;;;;28.37;48.09;103799.00;10394181;28;20045;-83
2022/07/30 12:38:04;;;;;;;4.82;1.92;;;;;;;29.18;48.06;104111.91;10383209;28;20069;-83
2022/07/30 12:43:06;;;;;;;4.82;1.90;;;;;;;29.50;47.69;104216.00;10387270;28;20042;-83
2022/07/30 12:48:15;;;;;;;6.22;2.05;;;;;;;29.08;47.45;104017.56;10383743;28;20069;-83
2022/07/30 12:53:17;;;;;;;4.15;1.85;;;;;;;28.80;47.28;103875.84;10387221;28;20069;-84
2022/07/30 12:58:18;;;;;;;9.32;2.50;;;;;;;28.03;46.95;103546.19;10382202;28;20038;-84
2022/07/30 13:03:20;;;;;;;6.50;2.20;;;;;;;27.92;46.78;103494.25;10383367;28;20080;-85
2022/07/30 13:08:54;;;;;;;11.50;2.33;;;;;;;28.05;46.62;103538.97;10380827;28;20057;-83
2022/07/30 13:13:55;;;;;;;5.18;1.73;;;;;;;28.66;46.77;103774.44;10388144;28;20052;-85
2022/07/30 13:18:57;;;;;;;7.40;2.13;;;;;;;29.08;46.49;103931.25;10397249;28;20041;-84
2022/07/30 13:24:00;;;;;;;4.95;1.85;;;;;;;29.26;46.75;103977.84;10399230;28;20076;-83
2022/07/30 13:29:02;;;;;;;9.25;2.38;;;;;;;28.95;46.52;103832.50;10384369;28;20386;-84
2022/07/30 13:34:04;;;;;;;6.15;2.17;;;;;;;28.47;46.16;103616.56;10398702;28;20052;-84
2022/07/30 13:39:06;;;;;;;6.93;2.20;;;;;;;29.05;46.15;103847.66;10386417;28;20112;-83
2022/07/30 13:44:08;;;;;;;7.10;2.58;;;;;;;29.54;45.94;104013.47;10389565;28;20041;-84
2022/07/30 13:49:09;;;;;;;7.75;2.20;;;;;;;29.04;45.26;103788.34;10377692;28;20100;-85
2022/07/30 13:54:11;;;;;;;6.32;1.85;;;;;;;29.07;45.68;103791.00;10383146;28;20077;-85
2022/07/30 13:59:14;;;;;;;6.35;2.03;;;;;;;28.73;45.37;103630.59;10382906;28;20428;-85
2022/07/30 14:04:16;;;;;;;7.78;2.22;;;;;;;28.80;45.34;103638.56;10375477;28;20042;-83
2022/07/30 14:09:18;;;;;;;9.60;2.60;;;;;;;28.87;45.16;103656.41;10386632;28;20533;-84
2022/07/30 14:14:21;;;;;;;6.38;2.10;;;;;;;29.17;45.16;103756.66;10375239;28;20065;-83
2022/07/30 14:19:22;;;;;;;7.00;2.20;;;;;;;28.27;44.99;103380.66;10375995;28;20077;-84
2022/07/30 14:24:25;;;;;;;4.47;2.03;;;;;;;27.44;44.93;103037.47;10388675;28;20060;-84
2022/07/30 14:29:26;;;;;;;6.13;2.13;;;;;;;26.85;45.04;102801.94;10365634;28;20080;-84
2022/07/30 14:34:28;;;;;;;7.65;2.60;;;;;;;26.50;44.74;102665.56;10376499;28;20079;-84
2022/07/30 14:39:30;;;;;;;8.98;2.60;;;;;;;26.38;45.29;102621.97;10375371;28;20129;-84
2022/07/30 14:44:33;;;;;;;3.97;2.17;;;;;;;26.38;44.86;102634.50;10379789;28;20040;-84
2022/07/30 14:49:34;;;;;;;3.92;1.98;;;;;;;26.41;45.27;102645.19;10363077;28;20046;-83
2022/07/30 14:54:36;;;;;;;8.65;2.30;;;;;;;26.35;45.30;102627.41;10360404;28;20131;-84
2022/07/30 14:59:38;;;;;;;5.18;2.17;;;;;;;26.18;45.43;102562.41;10385518;28;20073;-84
2022/07/30 15:04:40;;;;;;;6.45;2.17;;;;;;;26.00;45.34;102493.88;10383632;28;20128;-83
2022/07/30 15:09:42;;;;;;;5.30;2.10;;;;;;;26.10;45.80;102533.03;10379934;28;20845;-84
2022/07/30 15:14:47;;;;;;;7.07;2.10;;;;;;;26.00;46.00;102496.56;10360778;28;20073;-85
2022/07/30 15:19:48;;;;;;;6.70;2.20;;;;;;;26.58;46.26;102734.34;10377474;28;20125;-84
2022/07/30 15:24:52;;;;;;;7.07;2.17;;;;;;;26.78;45.97;102811.03;10371774;28;20045;-83
2022/07/30 15:29:53;;;;;;;6.20;2.20;;;;;;;26.95;46.31;102884.19;10375667;28;20073;-85
2022/07/30 15:34:57;;;;;;;10.63;2.60;;;;;;;27.21;46.21;102987.66;10369190;28;20128;-84
2022/07/30 15:39:59;;;;;;;7.32;2.45;;;;;;;26.94;46.05;102858.19;10384774;28;20056;-85
2022/07/30 15:45:04;;;;;;;9.18;2.20;;;;;;;26.31;46.20;102609.56;10385441;28;20128;-82
2022/07/30 15:50:22;;;;;;;8.13;2.70;;;;;;;25.97;46.41;102477.81;10396435;28;20179;-85
2022/07/30 15:55:24;;;;;;;7.95;2.60;;;;;;;25.83;46.37;102436.03;10394314;28;20077;-83
2022/07/30 16:00:27;;;;;;;10.27;2.88;;;;;;;25.56;46.83;102325.72;10388193;28;20052;-87
2022/07/30 16:05:31;;;;;;;12.50;3.10;;;;;;;25.45;47.39;102297.41;10392938;28;20049;-86
2022/07/30 16:10:53;;;;;;;13.48;4.55;;;;;;;25.09;47.66;102165.91;10390450;28;20527;-88
2022/07/30 16:15:55;;;;;;;10.57;3.75;;;;;;;24.36;48.06;101897.00;10369447;28;20037;-81
2022/07/30 16:20:59;;;;;;;10.73;3.45;;;;;;;23.78;48.36;101680.72;10392009;28;20129;-80
2022/07/30 16:26:01;;;;;;;9.43;3.60;;;;;;;23.56;48.85;101618.00;10375357;28;20103;-86
2022/07/30 16:31:03;;;;;;;20.40;5.50;;;;;;;22.96;49.26;101395.88;10382645;28;20050;-91
2022/07/30 16:36:14;;;;;;;15.23;5.57;;;;;;;22.05;49.98;101065.50;10385681;28;20603;-87
2022/07/30 16:41:18;;;;;;;9.93;5.25;;;;;;;21.46;50.81;100858.28;10389059;28;20412;-87
2022/07/30 16:46:20;;;;;;;10.60;5.10;;;;;;;21.11;51.58;100752.72;10364779;28;20140;-87
2022/07/30 16:51:22;;;;;;;15.50;5.53;;;;;;;21.00;52.35;100743.25;10386918;28;20402;-85
2022/07/30 16:56:24;;;;;;;11.32;5.40;;;;;;;20.85;52.95;100706.38;10378106;28;20605;-85
2022/07/30 17:01:27;;;;;;;11.85;5.22;;;;;;;21.07;53.74;100817.59;10396746;28;20136;-85
2022/07/30 17:06:29;;;;;;;13.05;5.63;;;;;;;20.97;54.26;100795.66;10390904;28;20080;-85
2022/07/30 17:11:31;;;;;;;9.98;5.80;;;;;;;21.27;55.21;100948.44;10382389;28;20046;-86
2022/07/30 17:16:52;;;;;;;15.73;5.63;;;;;;;21.50;55.91;101066.91;10394320;28;20045;-87
2022/07/30 17:21:54;;;;;;;13.57;5.75;;;;;;;21.35;56.73;101031.69;10386467;28;20029;-87
2022/07/30 17:26:57;;;;;;;16.73;7.95;;;;;;;21.09;57.39;100944.44;10375912;28;20045;-87
2022/07/30 17:31:59;;;;;;;22.30;10.52;;;;;;;20.97;58.17;100912.78;10378384;28;20045;-88
2022/07/30 17:37:01;;;;;;;17.63;9.38;;;;;;;21.22;58.63;101035.53;10400775;28;20055;-87
2022/07/30 17:42:03;;;;;;;11.07;5.60;;;;;;;21.80;59.28;101298.91;10374737;28;20042;-88
2022/07/30 17:47:05;;;;;;;12.38;5.50;;;;;;;21.97;59.91;101381.22;10379759;28;20084;-89
2022/07/30 17:52:13;;;;;;;9.67;5.00;;;;;;;21.77;60.56;101321.22;10386424;28;20112;-79
2022/07/30 17:57:14;;;;;;;12.52;4.53;;;;;;;21.42;61.04;101188.69;10392116;28;20045;-88
2022/07/30 18:02:23;;;;;;;21.65;8.95;;;;;;;21.09;61.55;101071.34;10371688;28;20049;-88
2022/07/30 18:07:30;;;;;;;11.55;4.80;;;;;;;21.07;62.07;101084.69;10401713;28;20726;-89
2022/07/30 18:12:33;;;;;;;10.77;4.93;;;;;;;20.81;62.65;100987.66;10372054;28;20390;-88
2022/07/30 18:17:38;;;;;;;12.30;3.92;;;;;;;20.46;62.92;100864.28;10368739;28;20053;-88
2022/07/30 18:22:40;;;;;;;9.63;3.50;;;;;;;20.14;63.65;100751.53;10380689;28;20049;-88
2022/07/30 18:27:42;;;;;;;7.53;2.90;;;;;;;19.99;63.77;100697.88;10371714;28;20468;-89
2022/07/30 18:32:44;;;;;;;9.27;3.28;;;;;;;19.65;64.13;100571.09;10380749;28;20038;-88
2022/07/30 18:37:47;;;;;;;10.60;2.90;;;;;;;19.32;64.17;100463.03;10362922;28;20038;-88
2022/07/30 18:42:49;;;;;;;6.25;2.40;;;;;;;19.07;64.73;100375.19;10373259;28;20045;-88
2022/07/30 18:47:51;;;;;;;4.63;2.53;;;;;;;18.94;65.09;100331.28;10345617;28;20060;-88
2022/07/30 18:53:11;;;;;;;6.85;2.72;;;;;;;18.79;64.96;100282.09;10346713;28;20053;-89
2022/07/30 18:58:16;;;;;;;7.90;2.38;;;;;;;18.60;65.25;100218.03;10360364;28;20091;-89
2022/07/30 19:03:18;;;;;;;10.57;2.42;;;;;;;18.46;65.49;100174.19;10397357;28;20045;-88
2022/07/30 19:08:27;;;;;;;5.78;2.10;;;;;;;18.38;65.88;100144.38;10383173;28;20057;-89
2022/07/30 19:13:29;;;;;;;4.63;1.77;;;;;;;18.17;65.99;100077.75;10373395;28;20084;-89
2022/07/30 19:18:34;;;;;;;3.28;1.50;;;;;;;17.84;65.68;99950.53;10370911;28;20065;-89
2022/07/30 19:23:39;;;;;;;6.22;1.95;;;;;;;17.71;65.79;99909.41;10367570;28;20051;-88
2022/07/30 19:28:45;;;;;;;4.28;1.50;;;;;;;17.58;65.81;99852.41;10366827;28;20069;-88
2022/07/30 19:33:50;;;;;;;4.15;1.88;;;;;;;17.42;66.12;99799.88;10363880;28;20092;-88
2022/07/30 19:38:55;;;;;;;4.10;2.00;;;;;;;17.37;65.95;99785.94;10361979;28;20042;-89
2022/07/30 19:43:59;;;;;;;6.75;1.70;;;;;;;-147.53;100.00;57128.34;10359754;28;20080;-87
2022/07/30 19:49:05;;;;;;;4.60;1.67;;;;;;;17.37;65.95;99785.94;10373426;28;20099;-89
2022/07/30 19:54:11;;;;;;;4.38;1.65;;;;;;;17.06;65.89;99683.56;10366865;28;20104;-88
2022/07/30 19:59:17;;;;;;;5.65;1.80;;;;;;;17.03;66.12;99674.88;10371262;28;20060;-89
2022/07/30 20:04:39;;;;;;;7.88;2.10;;;;;;;16.93;65.84;99648.69;10357547;28;20564;-89
2022/07/30 20:09:44;;;;;;;4.97;2.05;;;;;;;16.90;65.88;99646.13;10370848;28;20061;-88
2022/07/30 20:14:49;;;;;;;5.85;2.25;;;;;;;16.91;65.85;99652.28;10373636;28;20057;-88
2022/07/30 20:19:52;;;;;;;5.78;2.90;;;;;;;16.90;65.88;99653.16;10370195;28;20045;-89
2022/07/30 20:24:58;;;;;;;9.07;4.10;;;;;;;16.89;65.91;99660.25;10385540;28;20044;-88
2022/07/30 20:30:00;;;;;;;9.05;2.80;;;;;;;16.91;66.09;99668.13;10383040;28;20038;-88
2022/07/30 20:35:02;;;;;;;5.00;2.25;;;;;;;16.94;65.85;99690.06;10393631;28;20099;-89
2022/07/30 20:40:08;;;;;;;7.57;1.70;;;;;;;16.94;65.93;99691.84;10373349;28;20140;-89
2022/07/30 20:45:14;;;;;;;3.92;1.50;;;;;;;16.87;66.39;99677.03;10388243;28;20053;-89
2022/07/30 20:50:20;;;;;;;7.57;2.25;;;;;;;16.81;66.13;99656.03;10381915;28;20523;-89
2022/07/30 20:55:32;;;;;;;7.97;2.30;;;;;;;16.80;66.48;99665.75;10381689;28;20493;-89
2022/07/30 21:00:42;;;;;;;6.05;1.90;;;;;;;16.87;66.37;99692.91;10381664;28;20492;-89
2022/07/30 21:05:51;;;;;;;4.63;1.90;;;;;;;16.84;66.69;99682.38;10379655;28;20057;-89
2022/07/30 21:10:53;;;;;;;7.32;2.05;;;;;;;16.85;66.71;99705.28;10365346;28;20489;-89
2022/07/30 21:15:57;;;;;;;6.40;2.30;;;;;;;16.84;67.03;99708.81;10379828;28;20053;-90
2022/07/30 21:21:05;;;;;;;4.15;1.80;;;;;;;16.81;67.22;99711.53;10387814;28;20048;-90
2022/07/30 21:26:17;;;;;;;4.63;2.10;;;;;;;16.75;67.34;99694.94;10372235;28;20072;-89
2022/07/30 21:31:24;;;;;;;5.10;1.90;;;;;;;16.75;67.24;99702.88;10378084;28;20084;-88
2022/07/30 21:36:46;;;;;;;4.18;2.20;;;;;;;16.79;67.44;99720.38;10357779;28;20042;-88
2022/07/30 21:41:49;;;;;;;5.70;2.03;;;;;;;16.83;67.76;99749.38;10373794;28;20038;-88
2022/07/30 21:46:51;;;;;;;4.78;2.10;;;;;;;16.83;67.55;99754.66;10384810;28;20041;-89
2022/07/30 21:52:00;;;;;;;4.45;2.08;;;;;;;16.75;68.04;99739.00;10374753;28;20033;-88
2022/07/30 21:57:06;;;;;;;5.60;2.20;;;;;;;16.71;68.18;99740.84;10415879;28;20509;-88
2022/07/30 22:02:09;;;;;;;5.25;2.03;;;;;;;16.68;68.36;99730.38;10422401;28;20132;-88
2022/07/30 22:07:20;;;;;;;3.47;1.80;;;;;;;16.60;68.49;99703.25;10429356;28;20147;-89
2022/07/30 22:12:27;;;;;;;4.80;1.92;;;;;;;16.56;68.44;99693.69;10413142;28;20059;-89
2022/07/30 22:17:32;;;;;;;3.42;1.73;;;;;;;16.49;68.65;99674.44;10424796;28;20452;-88
2022/07/30 22:23:03;;;;;;;3.95;1.88;;;;;;;16.49;68.83;99684.16;10428489;28;20079;-88
2022/07/30 22:28:05;;;;;;;4.50;1.52;;;;;;;16.45;69.03;99672.78;10430617;28;20041;-88
2022/07/30 22:33:16;;;;;;;8.98;2.95;;;;;;;16.42;68.86;99665.81;10431424;28;20037;-88
2022/07/30 22:38:18;;;;;;;7.30;2.40;;;;;;;16.38;68.94;99663.31;10424011;28;20566;-88
2022/07/30 22:43:20;;;;;;;7.43;2.25;;;;;;;16.34;69.23;99651.91;10404062;28;20420;-88
2022/07/30 22:48:22;;;;;;;7.07;2.75;;;;;;;16.32;69.19;99642.28;10415817;28;20044;-88
2022/07/30 22:53:28;;;;;;;4.25;2.40;;;;;;;16.30;69.41;99644.97;10437184;28;20044;-88
2022/07/30 22:58:51;;;;;;;4.80;2.38;;;;;;;16.31;69.70;99654.63;10416055;28;20037;-88
2022/07/30 23:03:59;;;;;;;6.97;2.45;;;;;;;16.21;69.41;99618.78;10421704;28;20118;-88
2022/07/30 23:09:04;;;;;;;4.70;2.30;;;;;;;16.19;69.66;99623.25;10410492;28;20120;-88
2022/07/30 23:14:14;;;;;;;5.82;2.20;;;;;;;16.18;69.71;99632.06;10434525;28;20121;-88
2022/07/30 23:19:16;;;;;;;4.35;1.83;;;;;;;16.11;69.63;99604.06;10416978;28;20068;-89
2022/07/30 23:24:23;;;;;;;3.33;1.83;;;;;;;16.10;69.82;99605.00;10420044;28;20143;-88
2022/07/30 23:29:27;;;;;;;5.32;1.77;;;;;;;15.98;70.08;99566.56;10419474;28;20133;-88